createdAt,value
2023-04-16T00:00:05.233Z,22.12
2023-04-16T00:01:10.570Z,22.13
2023-04-16T00:02:15.951Z,22.14
2023-04-16T00:03:21.899Z,22.14
2023-04-16T00:04:27.959Z,22.11
2023-04-16T00:05:33.525Z,22.13
2023-04-16T00:06:38.872Z,22.12
2023-04-16T00:07:44.173Z,22.14
2023-04-16T00:08:49.539Z,22.12
2023-04-16T00:09:54.865Z,22.1
2023-04-16T00:11:00.194Z,22.11
2023-04-16T00:12:05.505Z,22.1
2023-04-16T00:13:10.871Z,22.11
2023-04-16T00:14:16.203Z,22.1
2023-04-16T00:15:21.549Z,22.1
2023-04-16T00:16:26.928Z,22.1
2023-04-16T00:17:32.314Z,22.1
2023-04-16T00:18:37.768Z,22.09
2023-04-16T00:19:43.119Z,22.09
2023-04-16T00:20:48.420Z,22.08
2023-04-16T00:21:54.774Z,22.08
2023-04-16T00:23:00.086Z,22.08
2023-04-16T00:24:05.474Z,22.07
2023-04-16T00:25:10.828Z,22.07
2023-04-16T00:26:16.155Z,22.06
2023-04-16T00:27:21.484Z,22.08
2023-04-16T00:28:26.835Z,22.09
2023-04-16T00:29:32.167Z,22.1
2023-04-16T00:30:37.823Z,22.11
2023-04-16T00:31:43.233Z,22.1
2023-04-16T00:32:48.620Z,22.09
2023-04-16T00:33:54.085Z,22.09
2023-04-16T00:34:59.414Z,22.07
2023-04-16T00:36:04.773Z,22.03
2023-04-16T00:37:10.105Z,22.04
2023-04-16T00:38:15.447Z,22.04
2023-04-16T00:39:21.095Z,22.05
2023-04-16T00:40:26.412Z,22.05
2023-04-16T00:41:31.702Z,22.04
2023-04-16T00:42:37.056Z,22.04
2023-04-16T00:43:42.476Z,22.06
2023-04-16T00:44:47.852Z,22.03
2023-04-16T00:45:53.176Z,22.05
2023-04-16T00:46:58.639Z,22.05
2023-04-16T00:48:04.140Z,22.06
2023-04-16T00:49:09.679Z,22.05
2023-04-16T00:50:15.353Z,22.05
2023-04-16T00:51:22.968Z,22.06
2023-04-16T00:52:28.392Z,22.04
2023-04-16T00:53:33.731Z,22.04
2023-04-16T00:54:39.083Z,22.04
2023-04-16T00:55:44.441Z,22.01
2023-04-16T00:56:50.797Z,22.02
2023-04-16T00:57:56.144Z,22.03
2023-04-16T00:59:01.518Z,22.04
2023-04-16T01:00:06.992Z,22.04
2023-04-16T01:01:12.381Z,22.03
2023-04-16T01:02:17.885Z,22.06
2023-04-16T01:03:23.440Z,22.02
2023-04-16T01:04:29.219Z,22.02
2023-04-16T01:05:35.071Z,22.04
2023-04-16T01:06:40.453Z,22.02
2023-04-16T01:07:45.813Z,22.02
2023-04-16T01:08:51.163Z,22.04
2023-04-16T01:09:56.511Z,22.01
2023-04-16T01:11:01.902Z,22.01
2023-04-16T01:12:07.244Z,22.02
2023-04-16T01:13:12.576Z,22.02
2023-04-16T01:14:18.020Z,22
2023-04-16T01:15:23.370Z,21.99
2023-04-16T01:16:29.874Z,22
2023-04-16T01:17:35.263Z,22
2023-04-16T01:18:40.712Z,22.01
2023-04-16T01:19:46.150Z,22
2023-04-16T01:20:51.487Z,22.02
2023-04-16T01:21:56.821Z,21.97
2023-04-16T01:23:02.162Z,21.98
2023-04-16T01:24:07.496Z,21.99
2023-04-16T01:25:12.900Z,21.98
2023-04-16T01:26:18.226Z,21.97
2023-04-16T01:27:23.555Z,21.98
2023-04-16T01:28:28.878Z,21.99
2023-04-16T01:29:36.570Z,21.96
2023-04-16T01:30:41.926Z,21.96
2023-04-16T01:31:47.382Z,21.98
2023-04-16T01:32:53.001Z,21.97
2023-04-16T01:33:58.475Z,21.99
2023-04-16T01:35:03.839Z,21.96
2023-04-16T01:36:09.189Z,21.96
2023-04-16T01:37:14.539Z,21.95
2023-04-16T01:38:19.859Z,21.93
2023-04-16T01:39:25.200Z,21.93
2023-04-16T01:40:31.556Z,21.94
2023-04-16T01:41:36.924Z,21.95
2023-04-16T01:42:42.288Z,21.95
2023-04-16T01:43:47.649Z,21.95
2023-04-16T01:44:53.031Z,21.93
2023-04-16T01:45:58.356Z,21.92
2023-04-16T01:47:03.827Z,21.93
2023-04-16T01:48:09.312Z,21.93
2023-04-16T01:49:14.678Z,21.95
2023-04-16T01:50:20.005Z,21.93
2023-04-16T01:51:25.352Z,21.9
2023-04-16T01:52:30.706Z,21.9
2023-04-16T01:53:37.075Z,21.92
2023-04-16T01:54:42.580Z,21.92
2023-04-16T01:55:48.164Z,21.92
2023-04-16T01:56:53.460Z,21.9
2023-04-16T01:57:58.838Z,21.88
2023-04-16T01:59:04.170Z,21.92
2023-04-16T02:00:09.749Z,21.91
2023-04-16T02:01:15.094Z,21.92
2023-04-16T02:02:20.641Z,21.91
2023-04-16T02:03:26.679Z,21.92
2023-04-16T02:04:32.484Z,21.92
2023-04-16T02:05:37.851Z,21.9
2023-04-16T02:06:43.169Z,21.9
2023-04-16T02:07:48.503Z,21.9
2023-04-16T02:08:53.833Z,21.92
2023-04-16T02:09:59.195Z,21.92
2023-04-16T02:11:04.549Z,21.9
2023-04-16T02:12:09.913Z,21.92
2023-04-16T02:13:15.353Z,21.9
2023-04-16T02:14:20.696Z,21.9
2023-04-16T02:15:26.038Z,21.9
2023-04-16T02:16:31.427Z,21.88
2023-04-16T02:17:36.933Z,21.87
2023-04-16T02:18:42.379Z,21.89
2023-04-16T02:19:47.722Z,21.9
2023-04-16T02:20:53.108Z,21.88
2023-04-16T02:21:58.428Z,21.89
2023-04-16T02:23:03.763Z,21.89
2023-04-16T02:24:09.088Z,21.89
2023-04-16T02:25:14.432Z,21.89
2023-04-16T02:26:19.743Z,21.89
2023-04-16T02:27:25.065Z,21.87
2023-04-16T02:28:30.423Z,21.88
2023-04-16T02:29:36.055Z,21.87
2023-04-16T02:30:41.589Z,21.85
2023-04-16T02:31:46.960Z,21.83
2023-04-16T02:32:52.517Z,21.82
2023-04-16T02:33:57.984Z,21.81
2023-04-16T02:35:03.339Z,21.84
2023-04-16T02:36:08.656Z,21.85
2023-04-16T02:37:14.007Z,21.82
2023-04-16T02:38:19.435Z,21.82
2023-04-16T02:39:24.811Z,21.83
2023-04-16T02:40:30.172Z,21.8
2023-04-16T02:41:35.517Z,21.81
2023-04-16T02:42:40.863Z,21.8
2023-04-16T02:43:46.201Z,21.82
2023-04-16T02:44:51.527Z,21.8
2023-04-16T02:45:56.890Z,21.79
2023-04-16T02:47:02.430Z,21.82
2023-04-16T02:48:07.756Z,21.81
2023-04-16T02:49:13.100Z,21.84
2023-04-16T02:50:18.422Z,21.84
2023-04-16T02:51:23.790Z,21.84
2023-04-16T02:52:29.126Z,21.85
2023-04-16T02:53:34.482Z,21.87
2023-04-16T02:54:39.819Z,21.86
2023-04-16T02:55:45.259Z,21.83
2023-04-16T02:56:50.580Z,21.82
2023-04-16T02:57:55.947Z,21.8
2023-04-16T02:59:01.290Z,21.78
2023-04-16T03:00:07.213Z,21.81
2023-04-16T03:01:12.656Z,21.84
2023-04-16T03:02:18.094Z,21.8
2023-04-16T03:03:23.649Z,21.81
2023-04-16T03:04:29.125Z,21.82
2023-04-16T03:05:34.677Z,21.84
2023-04-16T03:06:43.076Z,21.83
2023-04-16T03:07:48.452Z,21.82
2023-04-16T03:08:53.786Z,21.85
2023-04-16T03:09:59.182Z,21.86
2023-04-16T03:11:04.562Z,21.85
2023-04-16T03:12:09.924Z,21.83
2023-04-16T03:13:15.243Z,21.82
2023-04-16T03:14:20.590Z,21.83
2023-04-16T03:15:25.980Z,21.84
2023-04-16T03:16:31.400Z,21.86
2023-04-16T03:17:36.751Z,21.86
2023-04-16T03:18:42.246Z,21.86
2023-04-16T03:19:47.552Z,21.87
2023-04-16T03:20:53.175Z,21.86
2023-04-16T03:21:58.490Z,21.86
2023-04-16T03:23:03.872Z,21.85
2023-04-16T03:24:09.186Z,21.86
2023-04-16T03:25:14.562Z,21.88
2023-04-16T03:26:19.893Z,21.87
2023-04-16T03:27:25.225Z,21.88
2023-04-16T03:28:30.593Z,21.87
2023-04-16T03:29:35.946Z,21.88
2023-04-16T03:30:41.322Z,21.88
2023-04-16T03:31:46.712Z,21.87
2023-04-16T03:32:52.141Z,21.86
2023-04-16T03:33:57.750Z,21.86
2023-04-16T03:35:03.221Z,21.85
2023-04-16T03:36:08.648Z,21.82
2023-04-16T03:37:13.995Z,21.84
2023-04-16T03:38:21.587Z,21.82
2023-04-16T03:39:26.938Z,21.82
2023-04-16T03:40:32.251Z,21.81
2023-04-16T03:41:37.588Z,21.8
2023-04-16T03:42:42.950Z,21.79
2023-04-16T03:43:48.296Z,21.81
2023-04-16T03:44:53.667Z,21.8
2023-04-16T03:45:59.044Z,21.81
2023-04-16T03:47:04.548Z,21.79
2023-04-16T03:48:12.140Z,21.81
2023-04-16T03:49:17.488Z,21.8
2023-04-16T03:50:22.925Z,21.79
2023-04-16T03:51:28.256Z,21.78
2023-04-16T03:52:33.675Z,21.82
2023-04-16T03:53:39.002Z,21.82
2023-04-16T03:54:44.351Z,21.79
2023-04-16T03:55:49.668Z,21.77
2023-04-16T03:56:54.997Z,21.77
2023-04-16T03:58:00.340Z,21.76
2023-04-16T03:59:05.675Z,21.79
2023-04-16T04:00:11.438Z,21.81
2023-04-16T04:01:16.803Z,21.81
2023-04-16T04:02:22.364Z,21.81
2023-04-16T04:03:28.317Z,21.79
2023-04-16T04:04:34.851Z,21.81
2023-04-16T04:05:40.519Z,21.8
2023-04-16T04:06:45.862Z,21.83
2023-04-16T04:07:51.181Z,21.87
2023-04-16T04:08:56.528Z,21.92
2023-04-16T04:10:01.923Z,21.97
2023-04-16T04:11:07.292Z,22.04
2023-04-16T04:12:12.652Z,22.12
2023-04-16T04:13:18.037Z,22.19
2023-04-16T04:14:23.375Z,22.26
2023-04-16T04:15:28.684Z,22.32
2023-04-16T04:16:34.094Z,22.39
2023-04-16T04:17:39.639Z,22.44
2023-04-16T04:18:45.205Z,22.48
2023-04-16T04:20:00.238Z,22.51
2023-04-16T04:21:06.421Z,22.54
2023-04-16T04:22:11.774Z,22.59
2023-04-16T04:23:17.209Z,22.61
2023-04-16T04:24:22.538Z,22.63
2023-04-16T04:25:27.850Z,22.65
2023-04-16T04:26:33.186Z,22.67
2023-04-16T04:27:38.723Z,22.66
2023-04-16T04:28:44.040Z,22.68
2023-04-16T04:29:49.362Z,22.68
2023-04-16T04:30:54.698Z,22.7
2023-04-16T04:32:00.062Z,22.7
2023-04-16T04:33:05.819Z,22.72
2023-04-16T04:34:11.259Z,22.74
2023-04-16T04:35:16.550Z,22.74
2023-04-16T04:36:21.876Z,22.74
2023-04-16T04:37:27.250Z,22.73
2023-04-16T04:38:32.573Z,22.75
2023-04-16T04:39:37.877Z,22.74
2023-04-16T04:40:43.209Z,22.74
2023-04-16T04:41:48.577Z,22.74
2023-04-16T04:42:53.935Z,22.76
2023-04-16T04:43:59.253Z,22.73
2023-04-16T04:45:04.636Z,22.72
2023-04-16T04:46:10.003Z,22.71
2023-04-16T04:47:15.488Z,22.69
2023-04-16T04:48:20.895Z,22.69
2023-04-16T04:49:26.501Z,22.68
2023-04-16T04:50:31.833Z,22.66
2023-04-16T04:51:37.187Z,22.66
2023-04-16T04:52:42.721Z,22.63
2023-04-16T04:53:48.114Z,22.61
2023-04-16T04:54:53.458Z,22.59
2023-04-16T04:56:09.108Z,22.56
2023-04-16T04:57:17.343Z,22.53
2023-04-16T04:58:22.672Z,22.54
2023-04-16T04:59:28.000Z,22.51
2023-04-16T05:00:34.354Z,22.49
2023-04-16T05:01:39.772Z,22.48
2023-04-16T05:02:45.534Z,22.46
2023-04-16T05:03:51.291Z,22.45
2023-04-16T05:04:59.983Z,22.43
2023-04-16T05:06:05.603Z,22.43
2023-04-16T05:07:10.951Z,22.39
2023-04-16T05:08:16.309Z,22.38
2023-04-16T05:09:21.674Z,22.38
2023-04-16T05:10:27.026Z,22.37
2023-04-16T05:11:32.472Z,22.34
2023-04-16T05:12:37.785Z,22.33
2023-04-16T05:13:43.150Z,22.33
2023-04-16T05:14:48.544Z,22.33
2023-04-16T05:15:53.926Z,22.32
2023-04-16T05:16:59.379Z,22.31
2023-04-16T05:18:05.075Z,22.3
2023-04-16T05:19:10.720Z,22.3
2023-04-16T05:20:16.428Z,22.28
2023-04-16T05:21:21.839Z,22.28
2023-04-16T05:22:27.339Z,22.27
2023-04-16T05:23:32.702Z,22.26
2023-04-16T05:24:38.063Z,22.26
2023-04-16T05:25:43.436Z,22.28
2023-04-16T05:26:48.775Z,22.28
2023-04-16T05:27:54.103Z,22.28
2023-04-16T05:28:59.432Z,22.28
2023-04-16T05:30:04.795Z,22.27
2023-04-16T05:31:10.307Z,22.25
2023-04-16T05:32:15.932Z,22.24
2023-04-16T05:33:21.353Z,22.25
2023-04-16T05:34:29.707Z,22.24
2023-04-16T05:35:35.039Z,22.25
2023-04-16T05:36:40.454Z,22.26
2023-04-16T05:37:45.810Z,22.25
2023-04-16T05:38:51.139Z,22.26
2023-04-16T05:39:56.442Z,22.26
2023-04-16T05:41:01.806Z,22.25
2023-04-16T05:42:09.567Z,22.26
2023-04-16T05:43:14.949Z,22.27
2023-04-16T05:44:20.346Z,22.25
2023-04-16T05:45:27.420Z,22.25
2023-04-16T05:46:33.277Z,22.26
2023-04-16T05:47:38.873Z,22.27
2023-04-16T05:48:44.345Z,22.25
2023-04-16T05:49:49.678Z,22.25
2023-04-16T05:50:54.989Z,22.25
2023-04-16T05:52:00.313Z,22.25
2023-04-16T05:53:05.595Z,22.27
2023-04-16T05:54:10.997Z,22.28
2023-04-16T05:55:16.335Z,22.27
2023-04-16T05:56:21.676Z,22.28
2023-04-16T05:57:27.031Z,22.28
2023-04-16T05:58:34.739Z,22.24
2023-04-16T05:59:40.078Z,22.27
2023-04-16T06:00:45.423Z,22.27
2023-04-16T06:01:50.817Z,22.26
2023-04-16T06:02:56.395Z,22.24
2023-04-16T06:04:02.414Z,22.24
2023-04-16T06:05:08.217Z,22.24
2023-04-16T06:06:13.696Z,22.24
2023-04-16T06:07:19.013Z,22.24
2023-04-16T06:08:24.568Z,22.23
2023-04-16T06:09:29.880Z,22.24
2023-04-16T06:10:35.224Z,22.25
2023-04-16T06:11:40.582Z,22.27
2023-04-16T06:12:45.979Z,22.24
2023-04-16T06:13:51.355Z,22.23
2023-04-16T06:14:56.671Z,22.23
2023-04-16T06:16:02.063Z,22.23
2023-04-16T06:17:07.556Z,22.2
2023-04-16T06:18:12.981Z,22.19
2023-04-16T06:19:18.496Z,22.16
2023-04-16T06:20:23.850Z,22.16
2023-04-16T06:21:29.190Z,22.18
2023-04-16T06:22:34.593Z,22.17
2023-04-16T06:23:39.937Z,22.18
2023-04-16T06:24:45.279Z,22.17
2023-04-16T06:25:51.629Z,22.19
2023-04-16T06:26:56.953Z,22.2
2023-04-16T06:28:02.278Z,22.21
2023-04-16T06:29:07.811Z,22.23
2023-04-16T06:30:14.046Z,22.25
2023-04-16T06:31:19.446Z,22.26
2023-04-16T06:32:24.903Z,22.23
2023-04-16T06:33:30.362Z,22.24
2023-04-16T06:34:35.690Z,22.23
2023-04-16T06:35:42.065Z,22.22
2023-04-16T06:36:47.403Z,22.21
2023-04-16T06:37:52.752Z,22.23
2023-04-16T06:38:58.069Z,22.23
2023-04-16T06:40:03.385Z,22.22
2023-04-16T06:41:08.925Z,22.23
2023-04-16T06:42:14.252Z,22.21
2023-04-16T06:43:19.576Z,22.2
2023-04-16T06:44:24.893Z,22.2
2023-04-16T06:45:30.429Z,22.2
2023-04-16T06:46:35.800Z,22.2
2023-04-16T06:47:41.254Z,22.19
2023-04-16T06:48:46.760Z,22.21
2023-04-16T06:49:52.105Z,22.23
2023-04-16T06:50:57.476Z,22.25
2023-04-16T06:52:04.608Z,22.25
2023-04-16T06:53:11.039Z,22.24
2023-04-16T06:54:16.468Z,22.21
2023-04-16T06:55:21.914Z,22.2
2023-04-16T06:56:27.239Z,22.2
2023-04-16T06:57:32.581Z,22.18
2023-04-16T06:58:40.530Z,22.19
2023-04-16T06:59:45.835Z,22.19
2023-04-16T07:00:51.240Z,22.21
2023-04-16T07:01:56.779Z,22.2
2023-04-16T07:03:02.605Z,22.24
2023-04-16T07:04:08.691Z,22.25
2023-04-16T07:05:14.827Z,22.29
2023-04-16T07:06:20.181Z,22.33
2023-04-16T07:07:25.504Z,22.38
2023-04-16T07:08:30.821Z,22.4
2023-04-16T07:09:36.142Z,22.54
2023-04-16T07:10:44.535Z,22.56
2023-04-16T07:11:49.993Z,22.53
2023-04-16T07:12:55.330Z,22.49
2023-04-16T07:14:00.649Z,22.44
2023-04-16T07:15:06.082Z,22.41
2023-04-16T07:16:11.496Z,22.37
2023-04-16T07:17:16.986Z,22.36
2023-04-16T07:18:22.308Z,22.33
2023-04-16T07:19:27.658Z,22.31
2023-04-16T07:20:33.026Z,22.28
2023-04-16T07:21:38.368Z,22.27
2023-04-16T07:22:43.702Z,22.26
2023-04-16T07:23:49.069Z,22.26
2023-04-16T07:24:54.427Z,22.26
2023-04-16T07:25:59.741Z,22.25
2023-04-16T07:27:05.302Z,22.24
2023-04-16T07:28:10.676Z,22.23
2023-04-16T07:29:16.053Z,22.24
2023-04-16T07:30:21.380Z,22.23
2023-04-16T07:31:26.907Z,22.23
2023-04-16T07:32:32.429Z,22.24
2023-04-16T07:33:37.934Z,22.23
2023-04-16T07:34:43.317Z,22.22
2023-04-16T07:35:48.706Z,22.21
2023-04-16T07:36:54.093Z,22.22
2023-04-16T07:37:59.440Z,22.22
2023-04-16T07:39:04.830Z,22.22
2023-04-16T07:40:10.303Z,22.19
2023-04-16T07:41:15.669Z,22.18
2023-04-16T07:42:21.051Z,22.17
2023-04-16T07:43:26.387Z,22.17
2023-04-16T07:44:31.695Z,22.18
2023-04-16T07:45:37.097Z,22.16
2023-04-16T07:46:47.196Z,22.16
2023-04-16T07:47:53.074Z,22.16
2023-04-16T07:48:58.564Z,22.16
2023-04-16T07:50:03.886Z,22.16
2023-04-16T07:51:09.263Z,22.17
2023-04-16T07:52:14.634Z,22.13
2023-04-16T07:53:20.047Z,22.15
2023-04-16T07:54:26.313Z,22.15
2023-04-16T07:55:33.315Z,22.14
2023-04-16T07:56:38.638Z,22.12
2023-04-16T07:57:44.006Z,22.1
2023-04-16T07:58:49.394Z,22.1
2023-04-16T07:59:54.723Z,22.08
2023-04-16T08:01:00.037Z,22.07
2023-04-16T08:02:05.466Z,22.07
2023-04-16T08:03:11.281Z,22.03
2023-04-16T08:04:20.619Z,22.02
2023-04-16T08:05:26.605Z,22.01
2023-04-16T08:06:32.166Z,21.99
2023-04-16T08:07:37.497Z,21.98
2023-04-16T08:08:42.944Z,22.01
2023-04-16T08:09:48.252Z,22.03
2023-04-16T08:10:53.681Z,22.02
2023-04-16T08:11:59.083Z,22.04
2023-04-16T08:13:04.532Z,22.06
2023-04-16T08:14:09.924Z,22.07
2023-04-16T08:15:15.279Z,22.06
2023-04-16T08:16:20.833Z,22.06
2023-04-16T08:17:26.552Z,22.08
2023-04-16T08:18:31.977Z,22.07
2023-04-16T08:19:39.613Z,22.08
2023-04-16T08:20:44.943Z,22.08
2023-04-16T08:21:50.300Z,22.06
2023-04-16T08:22:55.616Z,22.06
2023-04-16T08:24:00.949Z,22.06
2023-04-16T08:25:06.363Z,22.05
2023-04-16T08:26:11.701Z,22.04
2023-04-16T08:27:19.545Z,22.04
2023-04-16T08:28:25.234Z,22.04
2023-04-16T08:29:30.610Z,22.04
2023-04-16T08:30:35.955Z,22.04
2023-04-16T08:31:41.374Z,22.03
2023-04-16T08:32:49.477Z,22.01
2023-04-16T08:33:55.421Z,22.03
2023-04-16T08:35:00.833Z,22.01
2023-04-16T08:36:06.279Z,21.99
2023-04-16T08:37:11.604Z,21.96
2023-04-16T08:38:16.905Z,21.92
2023-04-16T08:39:22.219Z,21.95
2023-04-16T08:40:27.593Z,22.04
2023-04-16T08:41:32.934Z,22.08
2023-04-16T08:42:38.294Z,22.07
2023-04-16T08:43:43.689Z,22.09
2023-04-16T08:44:49.458Z,22.08
2023-04-16T08:45:54.884Z,22.11
2023-04-16T08:47:00.280Z,22.11
2023-04-16T08:48:05.785Z,22.1
2023-04-16T08:49:11.289Z,22.1
2023-04-16T08:50:16.904Z,22.13
2023-04-16T08:51:22.281Z,22.13
2023-04-16T08:52:27.630Z,22.14
2023-04-16T08:53:33.214Z,22.16
2023-04-16T08:54:38.533Z,22.13
2023-04-16T08:55:43.870Z,22.13
2023-04-16T08:56:49.217Z,22.16
2023-04-16T08:57:54.561Z,22.16
2023-04-16T08:58:59.885Z,22.19
2023-04-16T09:00:05.281Z,22.19
2023-04-16T09:01:10.687Z,22.17
2023-04-16T09:02:16.108Z,22.17
2023-04-16T09:03:22.052Z,22.17
2023-04-16T09:04:27.890Z,22.18
2023-04-16T09:05:34.122Z,22.17
2023-04-16T09:06:39.452Z,22.17
2023-04-16T09:07:44.783Z,22.19
2023-04-16T09:08:50.144Z,22.19
2023-04-16T09:09:55.502Z,22.2
2023-04-16T09:11:00.889Z,22.19
2023-04-16T09:12:06.264Z,22.18
2023-04-16T09:13:11.632Z,22.2
2023-04-16T09:14:17.029Z,22.15
2023-04-16T09:15:22.372Z,22.17
2023-04-16T09:16:27.741Z,22.17
2023-04-16T09:17:33.205Z,22.16
2023-04-16T09:18:38.623Z,22.18
2023-04-16T09:19:43.994Z,22.17
2023-04-16T09:20:49.406Z,22.18
2023-04-16T09:21:54.753Z,22.19
2023-04-16T09:23:00.118Z,22.19
2023-04-16T09:24:05.533Z,22.2
2023-04-16T09:25:10.889Z,22.2
2023-04-16T09:26:16.295Z,22.2
2023-04-16T09:27:21.835Z,22.18
2023-04-16T09:28:30.048Z,22.19
2023-04-16T09:29:35.395Z,22.18
2023-04-16T09:30:40.713Z,22.19
2023-04-16T09:31:46.071Z,22.19
2023-04-16T09:32:51.575Z,22.21
2023-04-16T09:33:57.081Z,22.23
2023-04-16T09:35:02.456Z,22.24
2023-04-16T09:36:07.801Z,22.23
2023-04-16T09:37:13.140Z,22.24
2023-04-16T09:38:18.463Z,22.25
2023-04-16T09:39:23.800Z,22.24
2023-04-16T09:40:29.254Z,22.24
2023-04-16T09:41:34.747Z,22.24
2023-04-16T09:42:40.277Z,22.26
2023-04-16T09:43:45.622Z,22.26
2023-04-16T09:44:50.979Z,22.27
2023-04-16T09:45:56.406Z,22.27
2023-04-16T09:47:01.848Z,22.29
2023-04-16T09:48:07.208Z,22.3
2023-04-16T09:49:12.720Z,22.29
2023-04-16T09:50:18.875Z,22.3
2023-04-16T09:51:24.483Z,22.3
2023-04-16T09:52:29.914Z,22.3
2023-04-16T09:53:35.276Z,22.3
2023-04-16T09:54:40.662Z,22.3
2023-04-16T09:55:46.945Z,22.32
2023-04-16T09:56:52.378Z,22.32
2023-04-16T09:57:57.739Z,22.33
2023-04-16T09:59:03.114Z,22.3
2023-04-16T10:00:08.466Z,22.31
2023-04-16T10:01:14.234Z,22.31
2023-04-16T10:02:19.746Z,22.31
2023-04-16T10:03:25.504Z,22.31
2023-04-16T10:04:32.179Z,22.29
2023-04-16T10:05:37.646Z,22.3
2023-04-16T10:06:42.997Z,22.31
2023-04-16T10:07:48.323Z,22.32
2023-04-16T10:08:53.672Z,22.33
2023-04-16T10:09:58.998Z,22.34
2023-04-16T10:11:04.447Z,22.35
2023-04-16T10:12:09.785Z,22.37
2023-04-16T10:13:16.365Z,22.31
2023-04-16T10:14:21.774Z,22.28
2023-04-16T10:15:27.134Z,22.31
2023-04-16T10:16:32.470Z,22.31
2023-04-16T10:17:37.920Z,22.31
2023-04-16T10:18:43.437Z,22.32
2023-04-16T10:19:48.785Z,22.33
2023-04-16T10:20:54.114Z,22.33
2023-04-16T10:21:59.488Z,22.33
2023-04-16T10:23:04.847Z,22.35
2023-04-16T10:24:10.143Z,22.36
2023-04-16T10:25:15.486Z,22.36
2023-04-16T10:26:20.814Z,22.41
2023-04-16T10:27:26.184Z,22.5
2023-04-16T10:28:31.535Z,22.49
2023-04-16T10:29:36.862Z,22.47
2023-04-16T10:30:42.231Z,22.52
2023-04-16T10:31:47.629Z,22.51
2023-04-16T10:32:53.007Z,22.51
2023-04-16T10:34:00.245Z,22.51
2023-04-16T10:35:05.618Z,22.54
2023-04-16T10:36:11.057Z,22.54
2023-04-16T10:37:16.471Z,22.57
2023-04-16T10:38:21.847Z,22.59
2023-04-16T10:39:27.219Z,22.6
2023-04-16T10:40:32.536Z,22.62
2023-04-16T10:41:38.050Z,22.63
2023-04-16T10:42:43.372Z,22.64
2023-04-16T10:43:48.697Z,22.66
2023-04-16T10:44:54.032Z,22.68
2023-04-16T10:45:59.403Z,22.68
2023-04-16T10:47:04.840Z,22.69
2023-04-16T10:48:10.184Z,22.7
2023-04-16T10:49:15.562Z,22.7
2023-04-16T10:50:20.900Z,22.7
2023-04-16T10:51:26.259Z,22.69
2023-04-16T10:52:31.629Z,22.67
2023-04-16T10:53:36.970Z,22.67
2023-04-16T10:54:42.311Z,22.68
2023-04-16T10:55:47.653Z,22.68
2023-04-16T10:56:53.025Z,22.69
2023-04-16T10:57:58.326Z,22.7
2023-04-16T10:59:03.645Z,22.69
2023-04-16T11:00:08.982Z,22.7
2023-04-16T11:01:14.399Z,22.69
2023-04-16T11:02:20.083Z,22.71
2023-04-16T11:03:28.594Z,22.7
2023-04-16T11:04:34.371Z,22.7
2023-04-16T11:05:40.299Z,22.71
2023-04-16T11:06:45.722Z,22.72
2023-04-16T11:07:51.026Z,22.69
2023-04-16T11:08:56.359Z,22.71
2023-04-16T11:10:01.643Z,22.7
2023-04-16T11:11:07.093Z,22.71
2023-04-16T11:12:12.438Z,22.74
2023-04-16T11:13:17.783Z,22.74
2023-04-16T11:14:23.113Z,22.74
2023-04-16T11:15:28.468Z,22.73
2023-04-16T11:16:33.846Z,22.73
2023-04-16T11:17:39.317Z,22.75
2023-04-16T11:18:51.240Z,22.73
2023-04-16T11:19:59.723Z,22.73
2023-04-16T11:21:05.146Z,22.74
2023-04-16T11:22:10.443Z,22.71
2023-04-16T11:23:15.799Z,22.72
2023-04-16T11:24:21.151Z,22.7
2023-04-16T11:25:28.990Z,22.72
2023-04-16T11:26:34.570Z,22.73
2023-04-16T11:27:39.954Z,22.74
2023-04-16T11:28:45.580Z,22.75
2023-04-16T11:29:50.934Z,22.72
2023-04-16T11:30:56.260Z,22.69
2023-04-16T11:32:01.706Z,22.65
2023-04-16T11:33:07.166Z,22.63
2023-04-16T11:34:12.490Z,22.62
2023-04-16T11:35:17.916Z,22.61
2023-04-16T11:36:24.846Z,22.6
2023-04-16T11:38:10.281Z,22.61
2023-04-16T11:39:15.799Z,22.6
2023-04-16T11:40:21.119Z,22.61
2023-04-16T11:41:26.452Z,22.6
2023-04-16T11:42:31.912Z,22.58
2023-04-16T11:43:37.410Z,22.58
2023-04-16T11:44:42.800Z,22.6
2023-04-16T11:45:48.156Z,22.57
2023-04-16T11:46:53.643Z,22.57
2023-04-16T11:47:59.163Z,22.57
2023-04-16T11:49:04.739Z,22.59
2023-04-16T11:50:10.150Z,22.58
2023-04-16T11:51:15.507Z,22.57
2023-04-16T11:52:20.839Z,22.56
2023-04-16T11:53:26.174Z,22.55
2023-04-16T11:54:31.571Z,22.55
2023-04-16T11:55:36.887Z,22.54
2023-04-16T11:56:42.223Z,22.54
2023-04-16T11:57:47.569Z,22.54
2023-04-16T11:58:54.831Z,22.54
2023-04-16T12:00:01.222Z,22.53
2023-04-16T12:01:11.878Z,22.53
2023-04-16T12:02:17.289Z,22.52
2023-04-16T12:03:23.024Z,22.52
2023-04-16T12:04:28.912Z,22.52
2023-04-16T12:05:34.525Z,22.57
2023-04-16T12:06:39.883Z,22.63
2023-04-16T12:07:45.205Z,22.67
2023-04-16T12:08:50.563Z,22.7
2023-04-16T12:09:55.913Z,22.71
2023-04-16T12:11:01.273Z,22.72
2023-04-16T12:12:06.653Z,22.72
2023-04-16T12:13:12.023Z,22.72
2023-04-16T12:14:17.383Z,22.72
2023-04-16T12:15:22.707Z,22.72
2023-04-16T12:16:28.061Z,22.7
2023-04-16T12:17:33.689Z,22.71
2023-04-16T12:18:39.358Z,22.72
2023-04-16T12:19:44.758Z,22.74
2023-04-16T12:20:50.086Z,22.74
2023-04-16T12:21:55.516Z,22.75
2023-04-16T12:23:00.865Z,22.75
2023-04-16T12:24:06.218Z,22.72
2023-04-16T12:25:11.568Z,22.73
2023-04-16T12:26:17.031Z,22.73
2023-04-16T12:27:22.379Z,22.71
2023-04-16T12:28:27.723Z,22.69
2023-04-16T12:29:33.074Z,22.72
2023-04-16T12:30:38.393Z,22.73
2023-04-16T12:31:43.803Z,22.73
2023-04-16T12:32:49.156Z,22.74
2023-04-16T12:33:55.191Z,22.74
2023-04-16T12:35:00.552Z,22.73
2023-04-16T12:36:06.192Z,22.73
2023-04-16T12:37:11.517Z,22.74
2023-04-16T12:38:17.736Z,22.74
2023-04-16T12:39:25.450Z,22.75
2023-04-16T12:40:30.791Z,22.76
2023-04-16T12:41:36.145Z,22.7
2023-04-16T12:42:41.479Z,22.67
2023-04-16T12:43:46.841Z,22.64
2023-04-16T12:44:52.172Z,22.58
2023-04-16T12:45:57.572Z,22.65
2023-04-16T12:47:05.637Z,22.66
2023-04-16T12:48:11.037Z,22.7
2023-04-16T12:49:16.394Z,22.72
2023-04-16T12:50:21.720Z,22.72
2023-04-16T12:51:27.226Z,22.72
2023-04-16T12:52:32.564Z,22.73
2023-04-16T12:53:37.898Z,22.74
2023-04-16T12:54:43.236Z,22.75
2023-04-16T12:55:48.608Z,22.74
2023-04-16T12:56:53.930Z,22.73
2023-04-16T12:57:59.270Z,22.73
2023-04-16T12:59:04.599Z,22.7
2023-04-16T13:00:10.032Z,22.64
2023-04-16T13:01:15.552Z,22.62
2023-04-16T13:02:21.048Z,22.59
2023-04-16T13:03:27.039Z,22.58
2023-04-16T13:04:32.846Z,22.54
2023-04-16T13:05:38.349Z,22.54
2023-04-16T13:06:43.686Z,22.54
2023-04-16T13:07:49.077Z,22.53
2023-04-16T13:08:54.427Z,22.53
2023-04-16T13:09:59.736Z,22.52
2023-04-16T13:11:05.223Z,22.53
2023-04-16T13:12:10.594Z,22.52
2023-04-16T13:13:16.541Z,22.51
2023-04-16T13:14:21.881Z,22.52
2023-04-16T13:15:27.284Z,22.51
2023-04-16T13:16:32.773Z,22.5
2023-04-16T13:17:38.121Z,22.5
2023-04-16T13:18:43.656Z,22.5
2023-04-16T13:19:48.970Z,22.5
2023-04-16T13:20:55.328Z,22.5
2023-04-16T13:22:00.664Z,22.5
2023-04-16T13:23:05.984Z,22.5
2023-04-16T13:24:11.319Z,22.48
2023-04-16T13:25:16.669Z,22.48
2023-04-16T13:26:21.975Z,22.49
2023-04-16T13:27:27.326Z,22.48
2023-04-16T13:28:32.741Z,22.5
2023-04-16T13:29:38.076Z,22.57
2023-04-16T13:30:43.406Z,22.61
2023-04-16T13:31:48.843Z,22.65
2023-04-16T13:32:54.557Z,22.67
2023-04-16T13:34:00.006Z,22.69
2023-04-16T13:35:05.348Z,22.71
2023-04-16T13:36:10.679Z,22.72
2023-04-16T13:37:16.136Z,22.71
2023-04-16T13:38:21.486Z,22.75
2023-04-16T13:39:26.977Z,22.78
2023-04-16T13:40:32.306Z,22.83
2023-04-16T13:41:37.644Z,22.87
2023-04-16T13:42:43.045Z,22.9
2023-04-16T13:43:48.698Z,22.92
2023-04-16T13:44:54.065Z,22.94
2023-04-16T13:45:59.478Z,22.96
2023-04-16T13:47:05.086Z,22.98
2023-04-16T13:48:10.955Z,22.99
2023-04-16T13:49:16.295Z,23
2023-04-16T13:50:21.627Z,23.04
2023-04-16T13:51:26.966Z,23.04
2023-04-16T13:52:32.329Z,23.01
2023-04-16T13:53:37.689Z,23
2023-04-16T13:54:43.044Z,23.04
2023-04-16T13:55:48.424Z,23.07
2023-04-16T13:56:53.733Z,23.1
2023-04-16T13:57:59.059Z,23.11
2023-04-16T13:59:04.419Z,23.14
2023-04-16T14:00:11.271Z,23.17
2023-04-16T14:01:18.082Z,23.19
2023-04-16T14:02:23.993Z,23.22
2023-04-16T14:03:30.810Z,23.25
2023-04-16T14:04:36.429Z,23.29
2023-04-16T14:05:41.867Z,23.27
2023-04-16T14:06:49.668Z,23.29
2023-04-16T14:07:55.015Z,23.31
2023-04-16T14:09:00.360Z,23.39